Poughkeepsie, New York
Current Conditions -  °F | °C
As of 5:53 AM on Monday 20 Oct 2014 (Local Time) from KPOU Reporting Station
Clear Clear  
Wind Chill: 32°   Ceiling: Unl
Heat Index: 32°   Visibility: 10mi
Dew Point: 29°   Wind: 0mph
Humidity: 88%   Direction: NA
Pressure: 30.08"   Gusts: NA
Location:  41.71°N, 73.93°W
Report Text: KPOU 200953Z AUTO 00000KT 10SM CLR 00/M02 A3008 RMK AO2 SLP182 T00001017 TSNO
Loading
Personal Weather Stations






























Interactive Weather Map New forecast layout! Learn more

10-Day Weather Forecast

Advertisements
Track Severe Weather on mobile